createdAt,value
2022-12-18T00:04:30.906Z,86.52
2022-12-18T00:09:39.703Z,85.60
2022-12-18T00:14:41.943Z,85.86
2022-12-18T00:19:43.396Z,87.04
2022-12-18T00:24:44.878Z,86.43
2022-12-18T00:29:46.336Z,86.31
2022-12-18T00:34:47.758Z,86.32
2022-12-18T00:39:49.394Z,86.58
2022-12-18T00:44:50.995Z,86.56
2022-12-18T00:49:52.457Z,86.45
2022-12-18T00:54:53.931Z,86.07
2022-12-18T00:59:55.369Z,86.17
2022-12-18T01:04:56.769Z,86.18
2022-12-18T01:09:58.194Z,86.23
2022-12-18T01:14:59.723Z,86.81
2022-12-18T01:20:01.378Z,87.05
2022-12-18T01:25:04.091Z,86.68
2022-12-18T01:30:06.984Z,86.96
2022-12-18T01:35:08.793Z,86.98
2022-12-18T01:40:10.657Z,87.08
2022-12-18T01:45:12.056Z,87.03
2022-12-18T01:50:37.257Z,87.15
2022-12-18T01:55:46.194Z,86.63
2022-12-18T02:00:47.660Z,86.04
2022-12-18T02:06:10.732Z,86.80
2022-12-18T02:11:29.093Z,87.51
2022-12-18T02:16:45.057Z,87.59
2022-12-18T02:21:59.034Z,88.11
2022-12-18T02:27:06.963Z,87.76
2022-12-18T02:32:15.135Z,86.86
2022-12-18T02:37:19.463Z,86.76
2022-12-18T02:42:21.063Z,86.67
2022-12-18T02:47:25.771Z,87.11
2022-12-18T02:52:35.847Z,87.27
2022-12-18T02:57:42.904Z,86.99
2022-12-18T03:03:00.026Z,86.60
2022-12-18T03:08:09.530Z,86.82
2022-12-18T03:13:18.672Z,86.28
2022-12-18T03:18:28.566Z,85.88
2022-12-18T03:23:33.393Z,87.21
2022-12-18T03:28:39.658Z,86.85
2022-12-18T03:34:00.382Z,86.82
2022-12-18T03:39:01.838Z,86.42
2022-12-18T03:44:13.307Z,86.64
2022-12-18T03:49:26.280Z,86.24
2022-12-18T03:54:29.375Z,87.82
2022-12-18T03:59:32.542Z,89.35
2022-12-18T04:04:36.601Z,90.85
2022-12-18T04:09:40.107Z,91.55
2022-12-18T04:14:42.948Z,90.92
2022-12-18T04:19:44.377Z,91.42
2022-12-18T04:24:45.764Z,90.17
2022-12-18T04:29:47.222Z,89.93
2022-12-18T04:34:48.733Z,89.82
2022-12-18T04:39:50.228Z,89.78
2022-12-18T04:44:51.627Z,89.65
2022-12-18T04:49:53.168Z,89.55
2022-12-18T04:54:54.611Z,90.01
2022-12-18T04:59:56.047Z,89.74
2022-12-18T05:04:57.565Z,88.99
2022-12-18T05:09:59.017Z,88.94
2022-12-18T05:15:00.464Z,88.17
2022-12-18T05:20:01.932Z,88.46
2022-12-18T05:25:03.461Z,89.53
2022-12-18T05:30:05.428Z,88.65
2022-12-18T05:35:09.737Z,88.30
2022-12-18T05:40:12.609Z,88.57
2022-12-18T05:45:14.016Z,88.63
2022-12-18T05:50:15.500Z,88.19
2022-12-18T05:55:16.969Z,88.47
2022-12-18T06:00:18.670Z,88.28
2022-12-18T06:05:20.117Z,87.51
2022-12-18T06:10:21.723Z,87.64
2022-12-18T06:15:23.268Z,87.46
2022-12-18T06:20:26.903Z,88.81
2022-12-18T06:25:32.176Z,89.37
2022-12-18T06:30:33.839Z,88.34
2022-12-18T06:35:35.316Z,88.72
2022-12-18T06:40:39.444Z,90.50
2022-12-18T06:45:41.088Z,91.43
2022-12-18T06:50:45.629Z,94.00
2022-12-18T06:55:47.147Z,93.77
2022-12-18T07:00:48.642Z,93.99
2022-12-18T07:05:50.169Z,94.20
2022-12-18T07:10:55.955Z,96.25
2022-12-18T07:16:06.835Z,95.50
2022-12-18T07:21:14.306Z,94.18
2022-12-18T07:26:18.223Z,92.73
2022-12-18T07:31:22.063Z,91.77
2022-12-18T07:36:23.752Z,91.95
2022-12-18T07:41:25.171Z,91.81
2022-12-18T07:46:26.589Z,91.98
2022-12-18T07:51:27.984Z,90.83
2022-12-18T07:56:30.864Z,89.62
2022-12-18T08:01:34.550Z,89.75
2022-12-18T08:06:36.337Z,90.23
2022-12-18T08:11:37.755Z,90.27
2022-12-18T08:16:39.276Z,90.28
2022-12-18T08:21:40.815Z,90.16
2022-12-18T08:26:43.653Z,90.05
2022-12-18T08:31:53.434Z,88.82
2022-12-18T08:36:54.976Z,88.18
2022-12-18T08:42:15.052Z,87.23
2022-12-18T08:47:16.485Z,88.39
2022-12-18T08:52:18.010Z,88.96
2022-12-18T08:57:19.456Z,89.62
2022-12-18T09:02:21.142Z,90.12
2022-12-18T09:07:22.711Z,92.05
2022-12-18T09:12:24.121Z,91.68
2022-12-18T09:17:25.614Z,91.39
2022-12-18T09:22:27.012Z,91.72
2022-12-18T09:27:28.446Z,91.59
2022-12-18T09:32:29.891Z,90.61
2022-12-18T09:37:31.326Z,88.81
2022-12-18T09:42:33.100Z,88.55
2022-12-18T09:47:39.957Z,87.57
2022-12-18T09:52:46.344Z,88.00
2022-12-18T09:57:54.335Z,87.10
2022-12-18T10:03:09.839Z,84.22
2022-12-18T10:08:22.339Z,86.15
2022-12-18T10:13:39.438Z,86.34
2022-12-18T10:18:56.111Z,84.88
2022-12-18T10:24:14.181Z,85.18
2022-12-18T10:29:17.208Z,83.57
2022-12-18T10:34:18.804Z,85.56
2022-12-18T10:39:23.361Z,85.40
2022-12-18T10:44:28.773Z,84.02
2022-12-18T10:49:33.733Z,85.22
2022-12-18T10:54:36.387Z,85.73
2022-12-18T10:59:55.618Z,84.39
2022-12-18T11:04:57.010Z,83.62
2022-12-18T11:10:04.455Z,83.61
2022-12-18T11:15:07.117Z,81.99
2022-12-18T11:20:21.497Z,83.79
2022-12-18T11:25:33.195Z,84.05
2022-12-18T11:30:37.891Z,83.24
2022-12-18T11:36:04.747Z,83.13
2022-12-18T11:41:49.791Z,82.39
2022-12-18T11:47:03.126Z,82.11
2022-12-18T11:52:17.588Z,81.91
2022-12-18T11:57:22.228Z,80.18
2022-12-18T12:02:40.691Z,81.80
2022-12-18T12:08:04.410Z,81.08
2022-12-18T12:13:50.211Z,82.12
2022-12-18T12:19:15.121Z,80.88
2022-12-18T12:24:58.512Z,81.22
2022-12-18T12:30:24.321Z,81.60
2022-12-18T12:35:45.317Z,80.50
2022-12-18T12:41:00.514Z,81.06
2022-12-18T12:46:10.931Z,80.28
2022-12-18T12:51:24.789Z,80.08
2022-12-18T12:56:39.216Z,81.02
2022-12-18T13:02:20.468Z,79.30
2022-12-18T13:07:29.962Z,81.07
2022-12-18T13:12:51.416Z,81.67
2022-12-18T13:18:05.168Z,81.56
2022-12-18T13:23:25.216Z,80.81
2022-12-18T13:28:33.809Z,82.02
2022-12-18T13:33:35.720Z,81.98
2022-12-18T13:38:42.188Z,82.20
2022-12-18T13:43:46.799Z,82.30
2022-12-18T13:49:02.724Z,82.20
2022-12-18T13:54:26.601Z,82.09
2022-12-18T13:59:38.719Z,82.05
2022-12-18T14:04:42.678Z,82.61
2022-12-18T14:09:47.646Z,82.44
2022-12-18T14:14:55.105Z,83.30
2022-12-18T14:19:57.225Z,82.46
2022-12-18T14:25:14.106Z,83.23
2022-12-18T14:30:24.984Z,83.12
2022-12-18T14:35:26.751Z,83.69
2022-12-18T14:40:29.231Z,83.55
2022-12-18T14:45:42.066Z,83.35
2022-12-18T14:50:44.817Z,84.02
2022-12-18T14:55:49.180Z,83.78
2022-12-18T15:00:51.048Z,83.75
2022-12-18T15:05:52.766Z,84.46
2022-12-18T15:10:54.339Z,84.44
2022-12-18T15:15:59.289Z,84.65
2022-12-18T15:21:09.920Z,84.71
2022-12-18T15:26:13.362Z,85.46
2022-12-18T15:31:15.894Z,85.77
2022-12-18T15:36:26.151Z,85.55
2022-12-18T15:41:28.422Z,86.33
2022-12-18T15:46:30.077Z,86.15
2022-12-18T15:51:37.606Z,86.49
2022-12-18T15:56:57.831Z,86.98
2022-12-18T16:02:00.255Z,86.67
2022-12-18T16:07:23.024Z,87.36
2022-12-18T16:12:25.291Z,87.51
2022-12-18T16:17:26.758Z,87.84
2022-12-18T16:22:30.665Z,87.37
2022-12-18T16:27:32.057Z,87.92
2022-12-18T16:32:33.586Z,87.54
2022-12-18T16:37:35.034Z,88.11
2022-12-18T16:42:39.059Z,88.25
2022-12-18T16:47:40.965Z,88.50
2022-12-18T16:52:42.518Z,88.20
2022-12-18T16:57:43.930Z,88.35
2022-12-18T17:02:47.561Z,88.66
2022-12-18T17:07:49.221Z,88.01
2022-12-18T17:12:51.300Z,88.33
2022-12-18T17:17:52.707Z,88.40
2022-12-18T17:22:54.239Z,88.10
2022-12-18T17:27:55.705Z,87.88
2022-12-18T17:32:57.199Z,87.75
2022-12-18T17:37:58.661Z,87.57
2022-12-18T17:43:00.158Z,87.16
2022-12-18T17:48:01.612Z,87.43
2022-12-18T17:53:03.813Z,87.67
2022-12-18T17:58:05.320Z,87.54
2022-12-18T18:03:06.988Z,87.61
2022-12-18T18:08:08.621Z,88.36
2022-12-18T18:13:47.219Z,87.56
2022-12-18T18:18:48.980Z,88.32
2022-12-18T18:23:50.474Z,87.77
2022-12-18T18:28:54.304Z,88.21
2022-12-18T18:33:56.344Z,87.42
2022-12-18T18:39:01.211Z,87.45
2022-12-18T18:44:02.890Z,87.18
2022-12-18T18:49:05.620Z,88.13
2022-12-18T18:54:07.318Z,88.95
2022-12-18T18:59:08.842Z,89.57
2022-12-18T19:04:10.708Z,89.61
2022-12-18T19:09:12.530Z,90.48
2022-12-18T19:14:15.645Z,89.67
2022-12-18T19:19:21.032Z,88.39
2022-12-18T19:24:22.864Z,88.54
2022-12-18T19:29:24.374Z,88.77
2022-12-18T19:34:25.913Z,88.50
2022-12-18T19:39:27.514Z,88.58
2022-12-18T19:44:29.061Z,88.31
2022-12-18T19:49:32.719Z,87.75
2022-12-18T19:54:34.266Z,87.88
2022-12-18T19:59:36.930Z,87.72
2022-12-18T20:04:40.962Z,89.13
2022-12-18T20:09:42.393Z,89.75
2022-12-18T20:14:43.870Z,89.73
2022-12-18T20:19:45.362Z,89.09
2022-12-18T20:24:49.580Z,89.09
2022-12-18T20:29:51.780Z,88.67
2022-12-18T20:34:53.215Z,89.09
2022-12-18T20:39:55.089Z,88.63
2022-12-18T20:44:56.968Z,88.75
2022-12-18T20:49:58.572Z,89.28
2022-12-18T20:55:06.508Z,89.69
2022-12-18T21:00:08.652Z,90.17
2022-12-18T21:05:11.505Z,89.76
2022-12-18T21:10:13.055Z,90.23
2022-12-18T21:15:14.625Z,89.66
2022-12-18T21:20:17.896Z,89.32
2022-12-18T21:25:20.403Z,90.06
2022-12-18T21:30:21.982Z,90.55
2022-12-18T21:35:23.395Z,91.00
2022-12-18T21:40:26.887Z,90.41
2022-12-18T21:45:28.597Z,90.51
2022-12-18T21:50:30.072Z,90.09
2022-12-18T21:55:31.584Z,89.43
2022-12-18T22:00:33.028Z,89.15
2022-12-18T22:05:34.481Z,88.96
2022-12-18T22:10:36.733Z,89.16
2022-12-18T22:15:38.291Z,88.58
2022-12-18T22:20:39.812Z,88.49
2022-12-18T22:25:41.389Z,88.74
2022-12-18T22:30:42.875Z,89.24
2022-12-18T22:35:44.738Z,89.94
2022-12-18T22:40:46.462Z,89.95
2022-12-18T22:45:49.009Z,90.02
2022-12-18T22:50:50.954Z,89.44
2022-12-18T22:56:01.430Z,89.53
2022-12-18T23:01:03.483Z,88.89
2022-12-18T23:06:09.303Z,89.90
2022-12-18T23:11:11.878Z,90.76
2022-12-18T23:16:16.053Z,91.03
2022-12-18T23:21:19.702Z,91.54
2022-12-18T23:26:23.772Z,91.81
2022-12-18T23:31:30.292Z,91.59
2022-12-18T23:36:38.397Z,90.84
2022-12-18T23:41:47.528Z,90.11
2022-12-18T23:46:49.082Z,90.03
2022-12-18T23:51:50.854Z,90.21
2022-12-18T23:56:52.313Z,89.70
